Monday, November 20, 2017, 4:06 AM GMT
Back to Local

CWBK, Caribou Point Meteorological Aeronautical Presentation System

Location: , , Canada Lat: 45.767
Local Time: 4:06 AM GMT ( 4:06 GMT) Lon: -62.683
Time Zone: GMT Elev: 6 ft

Show me the last for .
Show Coded

Time T Td Feel RH Dir Speed Gust Alt SLP Vis Weather Sky Remarks
2017-11-20 03:00 54 50 - 87 210° 8 - - 29.14 0 Peak wind: 23 mph (20 kts) from 200° at 11 min
2017-11-20 02:00 55 53 - 91 200° 10 21 - 29.13 0 Peak wind: 24 mph (21 kts) from 190° at 00 min
2017-11-20 01:00 57 55 - 93 190° 15 23 - 29.14 0 Peak wind: 35 mph (31 kts) from 180° at 16 min
2017-11-20 00:00 57 55 - 93 180° 26 38 - 29.15 0 Peak wind: 37 mph (33 kts) from 180° at 56 min
1-hr Precip Total: 0.15"
2017-11-19 23:00 57 55 - 92 190° 24 37 - 29.17 0 Peak wind: 36 mph (32 kts) from 180° at 54 min
1-hr Precip Total: 0.02"
2017-11-19 22:00 57 55 - 93 180° 26 33 - 29.22 0 Peak wind: 34 mph (30 kts) from 170° at 27 min
1-hr Precip Total: 0.09"
2017-11-19 21:00 57 55 - 92 170° 23 29 - 29.25 0 Peak wind: 29 mph (26 kts) from 170° at 03 min
1-hr Precip Total: 0.01"
2017-11-19 20:00 56 54 - 93 170° 22 28 - 29.28 0 Peak wind: 27 mph (24 kts) from 160° at 52 min
2017-11-19 19:00 50 49 - 94 140° 17 - - 29.33 0 Peak wind: 23 mph (20 kts) from 160° at 02 min
1-hr Precip Total: 0.01"
2017-11-19 18:00 51 49 - 92 150° 18 - - 29.37 0 Peak wind: 31 mph (27 kts) from 160° at 04 min
1-hr Precip Total: 0.01"
2017-11-19 17:00 50 47 42 91 160° 22 30 - 29.41 0 Peak wind: 29 mph (26 kts) from 160° at 31 min
2017-11-19 16:00 47 45 40 89 160° 22 - - 29.46 0 Peak wind: 32 mph (28 kts) from 150° at 30 min
1-hr Precip Total: 0.01"
2017-11-19 15:00 46 43 36 91 150° 22 28 - 29.52 0 Peak wind: 28 mph (25 kts) from 160° at 04 min
1-hr Precip Total: 0.04"
2017-11-19 14:00 43 41 33 91 160° 22 29 - 29.57 0 Peak wind: 28 mph (25 kts) from 160° at 59 min
1-hr Precip Total: 0.05"
2017-11-19 13:00 41 38 32 90 150° 17 - - 29.62 0 Peak wind: 20 mph (18 kts) from 150° at 06 min
1-hr Precip Total: 0.06"
2017-11-19 12:00 40 35 31 82 150° 17 - - 29.64 0 Peak wind: 19 mph (17 kts) from 150° at 56 min
2017-11-19 11:00 38 34 30 86 140° 12 - - 29.66 0 None
2017-11-19 10:00 37 31 30 78 150° 12 - - 29.69 0 None
2017-11-19 09:00 34 31 30 87 150° 5 - - 29.72 0 None
2017-11-19 08:00 33 29 27 83 190° 7 - - 29.74 0 None
2017-11-19 07:00 33 29 28 83 190° 6 - - 29.76 0 None
2017-11-19 06:00 34 29 28 81 210° 7 - - 29.77 0 None
2017-11-19 05:00 33 29 27 82 220° 7 - - 29.77 0 None

Support USWX by starting your Amazon purchase here.